Time;durP1;ratioP1;P1;durP2;ratioP2;P2;SDS_P1;SDS_P2;PMS_P1;PMS_P2;Temp;Humidity;BMP_temperature;BMP_pressure;BME280_temperature;BME280_humidity;BME280_pressure;Samples;Min_cycle;Max_cycle;Signal;HPM_P1;HPM_P2
2023/03/14 00:01:32;;;;;;;;;;;10.30;99.90;;;;;;5073275;28;19925;-58
2023/03/14 00:03:59;;;;;;;;;;;10.30;99.90;;;;;;5071747;28;20167;-59
2023/03/14 00:06:24;;;;;;;;;;;10.40;99.90;;;;;;5072372;28;20364;-59
2023/03/14 00:08:51;;;;;;;;;;;10.40;99.90;;;;;;5087910;28;19961;-59
2023/03/14 00:11:18;;;;;;;;;;;10.50;99.90;;;;;;5087730;28;19912;-59
2023/03/14 00:13:46;;;;;;;;;;;10.50;99.90;;;;;;5084236;28;19923;-59
2023/03/14 00:16:12;;;;;;;;;;;10.60;99.90;;;;;;5096879;28;19908;-59
2023/03/14 00:18:38;;;;;;;;;;;10.60;99.90;;;;;;5095926;28;19982;-58
2023/03/14 00:21:04;;;;;;;;;;;10.60;99.90;;;;;;5096810;28;19915;-59
2023/03/14 00:23:30;;;;;;;;;;;10.70;99.90;;;;;;5096860;28;20389;-59
2023/03/14 00:26:02;;;;;;;;;;;10.60;99.90;;;;;;5096086;28;19943;-59
2023/03/14 00:28:28;;;;;;;;;;;10.60;99.90;;;;;;5096694;28;19908;-59
2023/03/14 00:30:53;;;;;;;;;;;10.70;99.90;;;;;;5095760;28;19915;-60
2023/03/14 00:33:19;;;;;;;;;;;10.70;99.90;;;;;;5096416;28;20014;-59
2023/03/14 00:35:52;;;;;;;;;;;10.70;99.90;;;;;;5096486;28;19911;-58
2023/03/14 00:38:17;;;;;;;;;;;10.60;99.90;;;;;;5095998;28;19914;-59
2023/03/14 00:40:43;;;;;;;;;;;10.70;99.90;;;;;;5096320;28;19908;-59
2023/03/14 00:43:08;;;;;;;;;;;10.70;99.90;;;;;;5096438;28;19912;-59
2023/03/14 00:45:34;;;;;;;;;;;10.70;99.90;;;;;;5095588;28;19941;-59
2023/03/14 00:48:00;;;;;;;;;;;10.80;99.90;;;;;;5096425;28;19961;-59
2023/03/14 00:50:25;;;;;;;;;;;10.70;99.90;;;;;;5096462;28;19908;-58
2023/03/14 00:52:51;;;;;;;;;;;10.70;99.90;;;;;;5095490;28;20003;-59
2023/03/14 00:55:16;;;;;;;;;;;10.70;99.90;;;;;;5096139;28;19958;-59
2023/03/14 00:57:42;;;;;;;;;;;10.80;99.90;;;;;;5096058;28;19919;-60
2023/03/14 01:00:10;;;;;;;;;;;10.80;99.90;;;;;;5095210;28;20420;-58
2023/03/14 01:02:36;;;;;;;;;;;10.80;99.90;;;;;;5095943;28;19915;-60
2023/03/14 01:05:01;;;;;;;;;;;10.90;99.90;;;;;;5095987;28;20287;-61
2023/03/14 01:07:27;;;;;;;;;;;10.90;99.90;;;;;;5095106;28;19953;-62
2023/03/14 01:09:52;;;;;;;;;;;10.90;99.90;;;;;;5096232;28;19915;-59
2023/03/14 01:12:18;;;;;;;;;;;11.00;99.90;;;;;;5095893;28;19908;-60
2023/03/14 01:14:43;;;;;;;;;;;10.90;99.90;;;;;;5094828;28;19920;-60
2023/03/14 01:17:09;;;;;;;;;;;10.90;99.90;;;;;;5091017;28;20432;-61
2023/03/14 01:19:34;;;;;;;;;;;10.90;99.90;;;;;;5093230;28;19919;-61
2023/03/14 01:22:00;;;;;;;;;;;10.90;99.90;;;;;;5091744;28;20310;-60
2023/03/14 01:24:25;;;;;;;;;;;10.90;99.90;;;;;;5095601;28;19908;-59
2023/03/14 01:26:51;;;;;;;;;;;10.80;99.90;;;;;;5095515;28;20363;-58
2023/03/14 01:29:16;;;;;;;;;;;10.70;99.90;;;;;;5094612;28;19908;-60
2023/03/14 01:31:42;;;;;;;;;;;10.70;99.90;;;;;;5095835;28;20155;-60
2023/03/14 01:34:07;;;;;;;;;;;10.70;99.90;;;;;;5094654;28;19916;-59
2023/03/14 01:36:33;;;;;;;;;;;10.80;99.90;;;;;;5095307;28;19908;-58
2023/03/14 01:38:58;;;;;;;;;;;10.70;99.90;;;;;;5095389;28;19908;-59
2023/03/14 01:41:24;;;;;;;;;;;10.80;99.90;;;;;;5094454;28;19916;-59
2023/03/14 01:43:50;;;;;;;;;;;10.70;99.90;;;;;;5095216;28;19908;-60
2023/03/14 01:46:23;;;;;;;;;;;10.70;99.90;;;;;;5095225;28;20322;-60
2023/03/14 01:48:52;;;;;;;;;;;10.80;99.90;;;;;;5076298;28;20283;-60
2023/03/14 01:51:20;;;;;;;;;;;10.80;99.90;;;;;;5095016;28;19978;-60
2023/03/14 01:53:47;;;;;;;;;;;10.80;99.90;;;;;;5095231;28;19916;-60
2023/03/14 01:56:14;;;;;;;;;;;10.80;99.90;;;;;;5094120;28;19908;-59
2023/03/14 01:58:41;;;;;;;;;;;10.90;99.90;;;;;;5095092;28;19908;-60
2023/03/14 02:01:08;;;;;;;;;;;10.80;99.90;;;;;;5094661;28;19920;-59
2023/03/14 02:03:36;;;;;;;;;;;10.80;99.90;;;;;;5094085;28;19912;-60
2023/03/14 02:06:04;;;;;;;;;;;10.80;99.90;;;;;;5094727;28;20282;-60
2023/03/14 02:08:30;;;;;;;;;;;10.80;99.90;;;;;;5094589;28;19951;-60
2023/03/14 02:10:56;;;;;;;;;;;10.90;99.90;;;;;;5094089;28;19995;-60
2023/03/14 02:13:22;;;;;;;;;;;10.90;99.90;;;;;;5094499;28;20426;-62
2023/03/14 02:15:48;;;;;;;;;;;10.90;99.90;;;;;;5094564;28;19912;-60
2023/03/14 02:18:14;;;;;;;;;;;10.90;99.90;;;;;;5093809;28;19914;-60
2023/03/14 02:20:52;;;;;;;;;;;10.90;99.90;;;;;;5094544;28;19914;-60
2023/03/14 02:23:23;;;;;;;;;;;10.90;99.90;;;;;;5081672;28;20301;-60
2023/03/14 02:25:54;;;;;;;;;;;10.90;99.90;;;;;;5073877;28;19916;-60
2023/03/14 02:28:20;;;;;;;;;;;10.80;99.90;;;;;;5074295;28;19912;-60
2023/03/14 02:30:46;;;;;;;;;;;10.80;99.90;;;;;;5089927;28;20436;-57
2023/03/14 02:33:13;;;;;;;;;;;10.80;99.90;;;;;;5084318;28;19942;-60
2023/03/14 02:35:57;;;;;;;;;;;10.70;99.90;;;;;;5076733;28;20390;-58
2023/03/14 02:38:28;;;;;;;;;;;10.80;99.90;;;;;;5089626;28;20003;-60
2023/03/14 02:40:54;;;;;;;;;;;10.70;99.90;;;;;;5085554;28;19912;-60
2023/03/14 02:43:19;;;;;;;;;;;10.80;99.90;;;;;;5094490;28;19914;-60
2023/03/14 02:45:46;;;;;;;;;;;10.80;99.90;;;;;;5093416;28;19908;-62
2023/03/14 02:48:31;;;;;;;;;;;10.70;99.90;;;;;;5093838;28;19976;-59
2023/03/14 02:50:59;;;;;;;;;;;10.70;99.90;;;;;;5083053;28;19998;-63
2023/03/14 02:53:29;;;;;;;;;;;10.70;99.90;;;;;;5092807;28;20379;-61
2023/03/14 02:55:54;;;;;;;;;;;10.70;99.90;;;;;;5093850;28;19908;-60
2023/03/14 02:58:20;;;;;;;;;;;10.60;99.90;;;;;;5093895;28;19938;-61
2023/03/14 03:00:45;;;;;;;;;;;10.50;99.90;;;;;;5092616;28;19927;-60
2023/03/14 03:03:11;;;;;;;;;;;10.50;99.90;;;;;;5093885;28;19915;-59
2023/03/14 03:05:36;;;;;;;;;;;10.40;99.90;;;;;;5092779;28;19914;-62
2023/03/14 03:08:02;;;;;;;;;;;10.40;99.90;;;;;;5093641;28;19908;-61
2023/03/14 03:10:28;;;;;;;;;;;10.40;99.90;;;;;;5093502;28;19982;-61
2023/03/14 03:12:53;;;;;;;;;;;10.30;99.90;;;;;;5092759;28;20238;-61
2023/03/14 03:15:19;;;;;;;;;;;10.30;99.90;;;;;;5093628;28;19919;-60
2023/03/14 03:17:44;;;;;;;;;;;10.30;99.90;;;;;;5093489;28;19912;-60
2023/03/14 03:20:10;;;;;;;;;;;10.30;99.90;;;;;;5092607;28;19908;-59
2023/03/14 03:22:36;;;;;;;;;;;10.30;99.90;;;;;;5093276;28;19912;-59
2023/03/14 03:25:02;;;;;;;;;;;10.20;99.90;;;;;;5093343;28;19908;-60
2023/03/14 03:27:29;;;;;;;;;;;10.20;99.90;;;;;;5092512;28;19954;-62
2023/03/14 03:29:55;;;;;;;;;;;10.20;99.90;;;;;;5093165;28;20263;-62
2023/03/14 03:32:20;;;;;;;;;;;10.10;99.90;;;;;;5093052;28;19962;-62
2023/03/14 03:34:46;;;;;;;;;;;10.10;99.90;;;;;;5092542;28;19923;-61
2023/03/14 03:37:11;;;;;;;;;;;10.00;99.90;;;;;;5074976;28;19908;-60
2023/03/14 03:39:36;;;;;;;;;;;10.00;99.90;;;;;;5088053;28;19951;-61
2023/03/14 03:42:02;;;;;;;;;;;10.10;99.90;;;;;;5091977;28;19913;-60
2023/03/14 03:44:27;;;;;;;;;;;10.00;99.90;;;;;;5092720;28;19999;-62
2023/03/14 03:46:53;;;;;;;;;;;10.00;99.90;;;;;;5093196;28;19908;-60
2023/03/14 03:49:18;;;;;;;;;;;10.00;99.90;;;;;;5092061;28;19915;-61
2023/03/14 03:51:44;;;;;;;;;;;10.00;99.90;;;;;;5092996;28;20394;-60
2023/03/14 03:54:09;;;;;;;;;;;10.00;99.90;;;;;;5074169;28;19994;-61
2023/03/14 03:56:35;;;;;;;;;;;10.00;99.90;;;;;;5088756;28;19916;-58
2023/03/14 03:59:00;;;;;;;;;;;10.00;99.90;;;;;;5092761;28;19908;-62
2023/03/14 04:01:26;;;;;;;;;;;10.00;99.90;;;;;;5092525;28;19926;-60
2023/03/14 04:03:51;;;;;;;;;;;10.00;99.90;;;;;;5092200;28;19912;-59
2023/03/14 04:06:16;;;;;;;;;;;10.00;99.90;;;;;;5088979;28;19909;-59
2023/03/14 04:08:43;;;;;;;;;;;9.90;99.90;;;;;;5072877;28;19958;-61
2023/03/14 04:11:09;;;;;;;;;;;9.90;99.90;;;;;;5072150;28;19909;-62
2023/03/14 04:13:34;;;;;;;;;;;9.90;99.90;;;;;;5100527;28;19930;-59
2023/03/14 04:16:00;;;;;;;;;;;9.90;99.90;;;;;;5112293;28;20002;-61
2023/03/14 04:18:25;;;;;;;;;;;9.90;99.90;;;;;;5113240;28;19949;-61
2023/03/14 04:20:52;;;;;;;;;;;9.80;99.90;;;;;;5112999;28;20274;-60
2023/03/14 04:23:17;;;;;;;;;;;9.80;99.90;;;;;;5112410;28;19908;-62
2023/03/14 04:25:43;;;;;;;;;;;9.80;99.90;;;;;;5112889;28;19915;-61
2023/03/14 04:28:08;;;;;;;;;;;9.80;99.90;;;;;;5112961;28;19908;-61
2023/03/14 04:30:34;;;;;;;;;;;9.80;99.90;;;;;;5112122;28;20398;-61
2023/03/14 04:32:59;;;;;;;;;;;9.80;99.90;;;;;;5109820;28;19999;-61
2023/03/14 04:35:25;;;;;;;;;;;9.80;99.90;;;;;;5092594;28;20017;-60
2023/03/14 04:37:51;;;;;;;;;;;9.90;99.90;;;;;;5091681;28;19908;-59
2023/03/14 04:40:17;;;;;;;;;;;9.90;99.90;;;;;;5086141;28;19912;-60
2023/03/14 04:42:42;;;;;;;;;;;9.90;99.90;;;;;;5081265;28;19966;-61
2023/03/14 04:45:08;;;;;;;;;;;9.80;99.90;;;;;;5091517;28;19912;-61
2023/03/14 04:47:33;;;;;;;;;;;9.70;99.90;;;;;;5092222;28;20011;-61
2023/03/14 04:49:59;;;;;;;;;;;9.70;99.90;;;;;;5092500;28;19908;-60
2023/03/14 04:52:24;;;;;;;;;;;9.70;99.90;;;;;;5091420;28;19918;-60
2023/03/14 04:54:50;;;;;;;;;;;9.60;99.90;;;;;;5093291;28;19916;-61
2023/03/14 04:57:15;;;;;;;;;;;9.50;99.90;;;;;;5096127;28;20021;-61
2023/03/14 04:59:41;;;;;;;;;;;9.50;99.90;;;;;;5095412;28;19912;-61
2023/03/14 05:02:06;;;;;;;;;;;9.50;99.90;;;;;;5096081;28;19920;-62
2023/03/14 05:04:33;;;;;;;;;;;9.40;99.90;;;;;;5096016;28;20198;-60
2023/03/14 05:06:59;;;;;;;;;;;9.40;99.90;;;;;;5095203;28;19908;-60
2023/03/14 05:09:24;;;;;;;;;;;9.40;99.90;;;;;;5095860;28;20252;-60
2023/03/14 05:11:50;;;;;;;;;;;9.40;99.90;;;;;;5095946;28;19915;-62
2023/03/14 05:14:15;;;;;;;;;;;9.30;99.90;;;;;;5094723;28;19920;-60
2023/03/14 05:16:41;;;;;;;;;;;9.40;99.90;;;;;;5095732;28;19908;-61
2023/03/14 05:19:06;;;;;;;;;;;9.40;99.90;;;;;;5096104;28;19931;-60
2023/03/14 05:21:32;;;;;;;;;;;9.40;99.90;;;;;;5094780;28;19912;-59
2023/03/14 05:23:57;;;;;;;;;;;9.50;99.90;;;;;;5095696;28;19908;-61
2023/03/14 05:26:23;;;;;;;;;;;9.50;99.90;;;;;;5094765;28;19909;-60
2023/03/14 05:28:48;;;;;;;;;;;9.50;99.90;;;;;;5095522;28;19961;-60
2023/03/14 05:31:14;;;;;;;;;;;9.50;99.90;;;;;;5095488;28;19912;-60
2023/03/14 05:33:39;;;;;;;;;;;9.60;99.90;;;;;;5094733;28;20348;-60
2023/03/14 05:36:05;;;;;;;;;;;9.60;99.90;;;;;;5095209;28;19912;-60
2023/03/14 05:38:31;;;;;;;;;;;9.60;99.90;;;;;;5093249;28;19916;-59
2023/03/14 05:40:56;;;;;;;;;;;9.60;99.90;;;;;;5095957;28;20389;-60
2023/03/14 05:43:21;;;;;;;;;;;9.60;99.90;;;;;;5100025;28;19912;-60
2023/03/14 05:45:47;;;;;;;;;;;9.60;99.90;;;;;;5099942;28;19912;-62
2023/03/14 05:48:12;;;;;;;;;;;9.60;99.90;;;;;;5100991;28;19916;-61
2023/03/14 05:50:38;;;;;;;;;;;9.60;99.90;;;;;;5101784;28;20161;-61
2023/03/14 05:53:04;;;;;;;;;;;9.50;99.90;;;;;;5103000;28;20403;-61
2023/03/14 05:55:29;;;;;;;;;;;9.50;99.90;;;;;;5090310;28;19924;-63
2023/03/14 05:57:54;;;;;;;;;;;9.50;99.90;;;;;;5102446;28;19931;-61
2023/03/14 06:00:20;;;;;;;;;;;9.50;99.90;;;;;;5100181;28;19943;-61
2023/03/14 06:02:46;;;;;;;;;;;9.40;99.90;;;;;;5102432;28;19908;-61
2023/03/14 06:05:11;;;;;;;;;;;9.50;99.90;;;;;;5102530;28;20011;-61
2023/03/14 06:07:37;;;;;;;;;;;9.40;99.90;;;;;;5104210;28;20275;-60
2023/03/14 06:10:03;;;;;;;;;;;9.40;99.90;;;;;;5101901;28;19908;-65
2023/03/14 06:12:28;;;;;;;;;;;9.40;99.90;;;;;;5103239;28;20381;-62
2023/03/14 06:14:54;;;;;;;;;;;9.40;99.90;;;;;;5104149;28;19971;-62
2023/03/14 06:17:19;;;;;;;;;;;9.40;99.90;;;;;;5101129;28;19909;-61
2023/03/14 06:19:45;;;;;;;;;;;9.40;99.90;;;;;;5103531;28;20398;-60
2023/03/14 06:22:10;;;;;;;;;;;9.40;99.90;;;;;;5103130;28;19914;-59
2023/03/14 06:24:36;;;;;;;;;;;9.30;99.90;;;;;;5095913;28;20451;-59
2023/03/14 06:27:02;;;;;;;;;;;9.30;99.90;;;;;;5085366;28;19912;-60
2023/03/14 06:29:29;;;;;;;;;;;9.30;99.90;;;;;;5101190;28;19909;-63
2023/03/14 06:31:54;;;;;;;;;;;9.30;99.90;;;;;;5097532;28;19923;-60
2023/03/14 06:34:20;;;;;;;;;;;9.30;99.90;;;;;;5102600;28;19973;-60
2023/03/14 06:36:45;;;;;;;;;;;9.20;99.90;;;;;;5101670;28;20667;-61
2023/03/14 06:39:10;;;;;;;;;;;9.20;99.90;;;;;;5102484;28;19953;-61
2023/03/14 06:41:36;;;;;;;;;;;9.30;99.90;;;;;;5103446;28;19950;-60
2023/03/14 06:44:01;;;;;;;;;;;9.30;99.90;;;;;;5099905;28;19908;-61
2023/03/14 06:46:27;;;;;;;;;;;9.30;99.90;;;;;;5102876;28;19973;-60
2023/03/14 06:48:53;;;;;;;;;;;9.30;99.90;;;;;;5097932;28;19952;-61
2023/03/14 06:51:18;;;;;;;;;;;9.40;99.90;;;;;;5099153;28;19919;-61
2023/03/14 06:53:44;;;;;;;;;;;9.40;99.90;;;;;;5102945;28;19928;-60
2023/03/14 06:56:10;;;;;;;;;;;9.40;99.90;;;;;;5101899;28;20282;-61
2023/03/14 06:58:35;;;;;;;;;;;9.40;99.90;;;;;;5101642;28;19965;-60
2023/03/14 07:01:01;;;;;;;;;;;9.40;99.90;;;;;;5103326;28;19924;-61
2023/03/14 07:03:26;;;;;;;;;;;9.40;99.90;;;;;;5101825;28;20355;-60
2023/03/14 07:05:52;;;;;;;;;;;9.40;99.90;;;;;;5101034;28;19916;-60
2023/03/14 07:08:17;;;;;;;;;;;9.40;99.90;;;;;;5103106;28;19915;-60
2023/03/14 07:10:43;;;;;;;;;;;9.40;99.90;;;;;;5101449;28;19935;-57
2023/03/14 07:13:08;;;;;;;;;;;9.40;99.90;;;;;;5098891;28;19908;-57
2023/03/14 07:15:34;;;;;;;;;;;9.30;99.90;;;;;;5093470;28;20401;-58
2023/03/14 07:17:59;;;;;;;;;;;9.40;99.90;;;;;;5092877;28;19916;-57
2023/03/14 07:20:25;;;;;;;;;;;9.30;99.90;;;;;;5092874;28;19908;-55
2023/03/14 07:22:50;;;;;;;;;;;9.30;99.90;;;;;;5093430;28;19908;-52
2023/03/14 07:25:16;;;;;;;;;;;9.30;99.90;;;;;;5093254;28;20299;-52
2023/03/14 07:27:45;;;;;;;;;;;9.30;99.90;;;;;;5092498;28;19962;-52
2023/03/14 07:30:11;;;;;;;;;;;9.20;99.90;;;;;;5093310;28;19962;-52
2023/03/14 07:32:36;;;;;;;;;;;9.00;99.90;;;;;;5084603;28;19912;-55
2023/03/14 07:35:02;;;;;;;;;;;8.60;99.90;;;;;;5072182;28;20389;-55
2023/03/14 07:37:27;;;;;;;;;;;8.30;99.90;;;;;;5072787;28;19908;-55
2023/03/14 07:39:53;;;;;;;;;;;8.00;99.90;;;;;;5072139;28;20360;-57
2023/03/14 07:42:18;;;;;;;;;;;7.80;99.90;;;;;;5078556;28;19973;-56
2023/03/14 07:44:44;;;;;;;;;;;7.60;99.90;;;;;;5092996;28;19908;-56
2023/03/14 07:47:09;;;;;;;;;;;7.50;99.90;;;;;;5092256;28;19923;-55
2023/03/14 07:49:35;;;;;;;;;;;7.30;99.90;;;;;;5093178;28;20336;-55
2023/03/14 07:52:00;;;;;;;;;;;7.10;99.90;;;;;;5086392;28;19947;-56
2023/03/14 07:54:26;;;;;;;;;;;7.00;99.90;;;;;;5078523;28;19928;-55
2023/03/14 07:56:51;;;;;;;;;;;6.90;99.90;;;;;;5085326;28;19908;-55
2023/03/14 07:59:17;;;;;;;;;;;6.80;99.90;;;;;;5085483;28;20382;-53
2023/03/14 08:01:43;;;;;;;;;;;6.70;99.90;;;;;;5082868;28;19920;-56
2023/03/14 08:04:08;;;;;;;;;;;6.50;99.90;;;;;;5073629;28;19960;-57
2023/03/14 08:06:35;;;;;;;;;;;6.40;99.90;;;;;;5072651;28;19920;-55
2023/03/14 08:09:00;;;;;;;;;;;6.30;99.90;;;;;;5078487;28;19931;-56
2023/03/14 08:11:25;;;;;;;;;;;6.20;99.90;;;;;;5083587;28;19919;-56
2023/03/14 08:13:52;;;;;;;;;;;6.00;99.90;;;;;;5076037;28;20437;-57
2023/03/14 08:16:17;;;;;;;;;;;6.00;99.90;;;;;;5091889;28;19908;-59
2023/03/14 08:18:43;;;;;;;;;;;5.80;99.90;;;;;;5092749;28;19915;-55
2023/03/14 08:21:09;;;;;;;;;;;5.70;99.90;;;;;;5092872;28;20362;-59
2023/03/14 08:23:34;;;;;;;;;;;5.60;99.90;;;;;;5091984;28;19966;-58
2023/03/14 08:26:00;;;;;;;;;;;5.50;99.90;;;;;;5092443;28;19908;-59
2023/03/14 08:28:30;;;;;;;;;;;5.50;99.90;;;;;;5093283;28;19912;-59
2023/03/14 08:30:59;;;;;;;;;;;5.50;99.90;;;;;;5096131;28;19914;-59
2023/03/14 08:33:25;;;;;;;;;;;5.50;99.90;;;;;;5096094;28;19922;-59
2023/03/14 08:35:54;;;;;;;;;;;5.50;99.90;;;;;;5096588;28;19908;-59
2023/03/14 08:38:19;;;;;;;;;;;5.50;99.90;;;;;;5095616;28;19908;-59
2023/03/14 08:40:44;;;;;;;;;;;5.60;99.90;;;;;;5096507;28;19908;-58
2023/03/14 08:43:10;;;;;;;;;;;5.70;99.90;;;;;;5095791;28;19908;-58
2023/03/14 08:45:35;;;;;;;;;;;5.70;99.90;;;;;;5095982;28;19912;-60
2023/03/14 08:48:01;;;;;;;;;;;5.80;99.90;;;;;;5096400;28;19915;-59
2023/03/14 08:50:26;;;;;;;;;;;5.80;99.90;;;;;;5095476;28;19912;-58
2023/03/14 08:52:52;;;;;;;;;;;5.90;99.90;;;;;;5096239;28;19908;-59
2023/03/14 08:55:17;;;;;;;;;;;5.90;99.90;;;;;;5096019;28;20355;-58
2023/03/14 08:57:43;;;;;;;;;;;5.90;99.90;;;;;;5111418;28;20003;-61
2023/03/14 09:00:14;;;;;;;;;;;5.90;99.90;;;;;;5116304;28;19918;-59
2023/03/14 09:02:40;;;;;;;;;;;5.90;99.90;;;;;;5111586;28;19957;-59
2023/03/14 09:05:06;;;;;;;;;;;5.90;99.90;;;;;;5095318;28;19996;-58
2023/03/14 09:07:32;;;;;;;;;;;5.90;99.90;;;;;;5089011;28;19913;-58
2023/03/14 09:09:57;;;;;;;;;;;5.90;99.90;;;;;;5089275;28;19912;-58
2023/03/14 09:12:24;;;;;;;;;;;6.00;99.90;;;;;;5079415;28;20300;-59
2023/03/14 09:14:50;;;;;;;;;;;6.10;99.90;;;;;;5083558;28;20039;-58
2023/03/14 09:17:15;;;;;;;;;;;6.20;99.90;;;;;;5086133;28;19956;-58
2023/03/14 09:19:41;;;;;;;;;;;6.20;99.90;;;;;;5081129;28;19912;-58
2023/03/14 09:22:06;;;;;;;;;;;6.30;99.90;;;;;;5074009;28;20295;-58
2023/03/14 09:24:32;;;;;;;;;;;6.30;99.90;;;;;;5076697;28;19921;-58
2023/03/14 09:26:57;;;;;;;;;;;6.30;99.90;;;;;;5075871;28;19956;-58
2023/03/14 09:29:23;;;;;;;;;;;6.30;99.90;;;;;;5077273;28;20330;-58
2023/03/14 09:31:48;;;;;;;;;;;6.40;99.90;;;;;;5076848;28;20007;-59
2023/03/14 09:34:14;;;;;;;;;;;6.50;99.90;;;;;;5074649;28;19927;-58
2023/03/14 09:36:39;;;;;;;;;;;6.60;99.90;;;;;;5075834;28;20363;-59
2023/03/14 09:39:05;;;;;;;;;;;6.70;99.90;;;;;;5075219;28;19908;-57
2023/03/14 09:41:35;;;;;;;;;;;6.80;99.90;;;;;;5073573;28;19998;-59
2023/03/14 09:44:05;;;;;;;;;;;6.90;99.90;;;;;;5076221;28;19912;-56
2023/03/14 09:46:32;;;;;;;;;;;6.90;99.90;;;;;;5074209;28;19908;-58
2023/03/14 09:48:58;;;;;;;;;;;7.10;99.90;;;;;;5074965;28;19908;-58
2023/03/14 09:51:25;;;;;;;;;;;7.20;99.90;;;;;;5083965;28;19916;-58
2023/03/14 09:53:51;;;;;;;;;;;7.30;99.90;;;;;;5093972;28;19919;-57
2023/03/14 09:56:22;;;;;;;;;;;7.40;99.90;;;;;;5095007;28;19916;-59
2023/03/14 09:58:50;;;;;;;;;;;7.50;99.90;;;;;;5094848;28;20422;-59
2023/03/14 10:01:18;;;;;;;;;;;7.50;99.90;;;;;;5085771;28;19931;-58
2023/03/14 10:03:44;;;;;;;;;;;7.50;99.90;;;;;;5074600;28;19916;-57
2023/03/14 10:06:13;;;;;;;;;;;7.50;99.90;;;;;;5074683;28;19908;-58
2023/03/14 10:08:42;;;;;;;;;;;7.50;99.90;;;;;;5073770;28;19913;-57
2023/03/14 10:11:17;;;;;;;;;;;7.50;99.90;;;;;;5080410;28;19912;-56
2023/03/14 10:13:47;;;;;;;;;;;7.60;99.90;;;;;;5094638;28;20366;-58
2023/03/14 10:16:13;;;;;;;;;;;7.70;99.90;;;;;;5093864;28;20359;-58
2023/03/14 10:18:43;;;;;;;;;;;7.60;99.90;;;;;;5094814;28;19908;-57
2023/03/14 10:21:42;;;;;;;;;;;7.50;99.90;;;;;;5088129;28;19908;-58
2023/03/14 10:24:27;;;;;;;;;;;7.50;99.90;;;;;;5040135;28;19913;-57
2023/03/14 10:26:54;;;;;;;;;;;7.50;99.90;;;;;;5073826;28;19908;-58
2023/03/14 10:29:21;;;;;;;;;;;7.50;99.90;;;;;;5073406;28;19909;-55
2023/03/14 10:31:48;;;;;;;;;;;7.50;99.90;;;;;;5084620;28;20398;-56
2023/03/14 10:34:20;;;;;;;;;;;7.50;99.90;;;;;;5094518;28;19920;-56
2023/03/14 10:36:46;;;;;;;;;;;7.50;99.90;;;;;;5093542;28;19912;-56
2023/03/14 10:39:27;;;;;;;;;;;7.50;99.90;;;;;;5094508;28;20282;-55
2023/03/14 10:41:54;;;;;;;;;;;7.50;99.90;;;;;;5082326;28;19912;-56
2023/03/14 10:44:21;;;;;;;;;;;7.40;99.90;;;;;;5073057;28;19913;-54
2023/03/14 10:46:55;;;;;;;;;;;7.30;99.90;;;;;;5073819;28;19998;-56
2023/03/14 10:49:47;;;;;;;;;;;7.30;99.90;;;;;;5073825;28;19908;-55
2023/03/14 10:52:26;;;;;;;;;;;7.20;99.90;;;;;;5083001;28;19909;-56
2023/03/14 10:55:02;;;;;;;;;;;7.20;99.90;;;;;;5093948;28;19920;-55
2023/03/14 10:57:27;;;;;;;;;;;7.20;99.90;;;;;;5093053;28;19931;-56
2023/03/14 10:59:54;;;;;;;;;;;7.20;99.90;;;;;;5093537;28;20351;-53
2023/03/14 11:02:38;;;;;;;;;;;7.30;99.90;;;;;;5079390;28;19913;-53
2023/03/14 11:05:11;;;;;;;;;;;7.40;99.90;;;;;;5072675;28;20355;-57
2023/03/14 11:07:43;;;;;;;;;;;7.50;99.90;;;;;;5073398;28;19918;-56
2023/03/14 11:10:27;;;;;;;;;;;7.50;99.90;;;;;;5073315;28;19909;-55
2023/03/14 11:12:52;;;;;;;;;;;7.50;99.90;;;;;;5090851;28;19971;-55
2023/03/14 11:15:18;;;;;;;;;;;7.60;99.90;;;;;;5093403;28;20269;-55
2023/03/14 11:17:57;;;;;;;;;;;7.70;99.90;;;;;;5093550;28;19954;-55
2023/03/14 11:20:29;;;;;;;;;;;7.80;99.90;;;;;;5093476;28;19908;-57
2023/03/14 11:22:59;;;;;;;;;;;7.80;99.90;;;;;;5074526;28;19912;-56
2023/03/14 11:25:36;;;;;;;;;;;7.80;99.90;;;;;;5072349;28;19977;-55
2023/03/14 11:28:09;;;;;;;;;;;7.80;99.90;;;;;;5073186;28;19908;-56
2023/03/14 11:30:42;;;;;;;;;;;7.90;99.90;;;;;;5073095;28;19909;-56
2023/03/14 11:33:10;;;;;;;;;;;7.90;99.90;;;;;;5072478;28;19912;-56
2023/03/14 11:35:45;;;;;;;;;;;7.90;99.90;;;;;;5073009;28;19924;-56
2023/03/14 11:38:29;;;;;;;;;;;7.90;99.90;;;;;;5072895;28;19916;-55
2023/03/14 11:40:57;;;;;;;;;;;7.80;99.90;;;;;;5073119;28;19908;-54
2023/03/14 11:43:30;;;;;;;;;;;7.70;99.90;;;;;;5093305;28;19938;-57
2023/03/14 11:46:03;;;;;;;;;;;7.70;99.90;;;;;;5093073;28;19935;-56
2023/03/14 11:48:32;;;;;;;;;;;7.90;99.90;;;;;;5093011;28;19908;-57
2023/03/14 11:50:58;;;;;;;;;;;8.10;99.90;;;;;;5079209;28;19916;-55
2023/03/14 11:53:48;;;;;;;;;;;8.20;99.90;;;;;;5071712;28;19934;-57
2023/03/14 11:56:34;;;;;;;;;;;8.40;99.90;;;;;;5072568;28;19955;-57
2023/03/14 11:59:02;;;;;;;;;;;8.50;99.90;;;;;;5080102;28;19912;-55
2023/03/14 12:01:33;;;;;;;;;;;8.50;99.90;;;;;;5086528;28;19920;-58
2023/03/14 12:04:10;;;;;;;;;;;8.40;99.90;;;;;;5083803;28;20084;-56
2023/03/14 12:06:49;;;;;;;;;;;8.40;99.90;;;;;;5092559;28;19915;-58
2023/03/14 12:09:16;;;;;;;;;;;8.60;99.90;;;;;;5074251;28;19916;-56
2023/03/14 12:11:52;;;;;;;;;;;8.70;99.90;;;;;;5092848;28;20437;-58
2023/03/14 12:14:26;;;;;;;;;;;8.70;99.90;;;;;;5091848;28;19916;-57
2023/03/14 12:16:56;;;;;;;;;;;8.80;97.30;;;;;;5092661;28;20418;-57
2023/03/14 12:19:22;;;;;;;;;;;9.10;99.90;;;;;;5092525;28;20252;-57
2023/03/14 12:21:52;;;;;;;;;;;9.30;99.90;;;;;;5091816;28;19934;-56
2023/03/14 12:24:19;;;;;;;;;;;9.20;99.90;;;;;;5081953;28;20425;-56
2023/03/14 12:26:55;;;;;;;;;;;9.00;99.90;;;;;;5084458;28;20385;-58
2023/03/14 12:29:21;;;;;;;;;;;9.00;99.90;;;;;;5074972;28;19919;-57
2023/03/14 12:31:48;;;;;;;;;;;8.90;99.90;;;;;;5079027;28;19920;-57
2023/03/14 12:34:13;;;;;;;;;;;8.90;93.40;;;;;;5102215;28;19920;-57
2023/03/14 12:36:42;;;;;;;;;;;9.00;93.40;;;;;;5088539;28;20363;-57
2023/03/14 12:39:14;;;;;;;;;;;9.10;95.20;;;;;;5072292;28;19913;-57
2023/03/14 12:41:44;;;;;;;;;;;9.30;99.90;;;;;;5072168;28;19916;-58
2023/03/14 12:44:28;;;;;;;;;;;9.50;95.00;;;;;;5071379;28;19908;-57
2023/03/14 12:46:54;;;;;;;;;;;9.80;99.90;;;;;;5075247;28;19912;-58
2023/03/14 12:49:20;;;;;;;;;;;10.00;99.10;;;;;;5071662;28;20287;-58
2023/03/14 12:51:45;;;;;;;;;;;9.80;99.90;;;;;;5072161;28;19909;-58
2023/03/14 12:54:11;;;;;;;;;;;9.50;99.90;;;;;;5072739;28;19916;-57
2023/03/14 12:56:55;;;;;;;;;;;9.30;90.10;;;;;;5072176;28;19908;-57
2023/03/14 12:59:29;;;;;;;;;;;9.40;79.00;;;;;;5078658;28;19995;-57
2023/03/14 13:02:09;;;;;;;;;;;9.70;99.90;;;;;;5072659;28;20283;-58
2023/03/14 13:04:36;;;;;;;;;;;10.00;89.50;;;;;;5072626;28;19912;-58
2023/03/14 13:07:03;;;;;;;;;;;10.10;76.20;;;;;;5079894;28;19912;-57
2023/03/14 13:09:32;;;;;;;;;;;10.00;78.80;;;;;;5082948;28;19967;-57
2023/03/14 13:12:03;;;;;;;;;;;9.80;77.30;;;;;;5079318;28;19912;-58
2023/03/14 13:14:30;;;;;;;;;;;9.50;99.60;;;;;;5076298;28;20285;-57
2023/03/14 13:16:55;;;;;;;;;;;9.20;97.20;;;;;;5083445;28;19993;-57
2023/03/14 13:19:25;;;;;;;;;;;9.10;94.30;;;;;;5090810;28;19912;-57
2023/03/14 13:21:51;;;;;;;;;;;9.10;92.50;;;;;;5095951;28;19908;-58
2023/03/14 13:24:24;;;;;;;;;;;9.20;93.90;;;;;;5096040;28;19923;-57
2023/03/14 13:26:53;;;;;;;;;;;9.40;81.40;;;;;;5082122;28;20003;-56
2023/03/14 13:29:20;;;;;;;;;;;9.70;98.60;;;;;;5075730;28;19912;-58
2023/03/14 13:31:46;;;;;;;;;;;9.80;70.30;;;;;;5075218;28;19909;-57
2023/03/14 13:34:12;;;;;;;;;;;9.90;91.70;;;;;;5077985;28;20420;-56
2023/03/14 13:36:38;;;;;;;;;;;10.10;93.90;;;;;;5095272;28;19916;-57
2023/03/14 13:39:11;;;;;;;;;;;10.50;99.90;;;;;;5095492;28;19909;-56
2023/03/14 13:41:37;;;;;;;;;;;10.60;70.80;;;;;;5095738;28;19974;-58
2023/03/14 13:44:05;;;;;;;;;;;10.60;83.30;;;;;;5093998;28;19908;-57
2023/03/14 13:46:33;;;;;;;;;;;10.60;83.40;;;;;;5074842;28;19981;-57
2023/03/14 13:49:00;;;;;;;;;;;10.30;66.30;;;;;;5074893;28;19931;-57
2023/03/14 13:51:31;;;;;;;;;;;10.10;99.90;;;;;;5076989;28;19953;-57
2023/03/14 13:53:56;;;;;;;;;;;10.00;99.90;;;;;;5089541;28;20003;-57
2023/03/14 13:56:24;;;;;;;;;;;9.70;93.70;;;;;;5094653;28;19951;-58
2023/03/14 13:58:49;;;;;;;;;;;9.50;89.70;;;;;;5095779;28;19908;-57
2023/03/14 14:01:16;;;;;;;;;;;9.40;74.70;;;;;;5088420;28;19927;-58
2023/03/14 14:03:44;;;;;;;;;;;9.60;84.80;;;;;;5075211;28;20462;-57
2023/03/14 14:06:36;;;;;;;;;;;9.80;70.00;;;;;;5075019;28;20313;-59
2023/03/14 14:09:16;;;;;;;;;;;10.30;74.80;;;;;;5069789;28;19940;-57
2023/03/14 14:11:51;;;;;;;;;;;10.70;88.50;;;;;;5078892;28;20003;-57
2023/03/14 14:14:32;;;;;;;;;;;11.20;84.20;;;;;;5078303;28;20002;-57
2023/03/14 14:16:59;;;;;;;;;;;11.70;94.10;;;;;;5074769;28;19917;-58
2023/03/14 14:19:26;;;;;;;;;;;11.90;98.70;;;;;;5074906;28;20327;-57
2023/03/14 14:21:52;;;;;;;;;;;12.00;98.60;;;;;;5074414;28;20359;-58
2023/03/14 14:24:17;;;;;;;;;;;12.20;72.10;;;;;;5089751;28;19920;-58
2023/03/14 14:26:52;;;;;;;;;;;12.60;93.00;;;;;;5094897;28;20003;-58
2023/03/14 14:29:27;;;;;;;;;;;12.00;80.80;;;;;;5094383;28;19939;-57